»·PEaware :: BADGR13 KIFP-KFLG

BADGR13 :: KIFP-KFLG

FLIGHT INFORMATION

Flight Status: Arrived
Operator: Unknown
More flights by this operator :: More flights under this callsign
Pilot: Abraham G. (22221)
Aircraft: BEECH AIRCRAFT T-6A TEXAN
(TEX2)
More flights by this aircraft type
Origin: KIFP Laughlin/Bullhead Intl
United States
Destination: KFLG Flagstaff Pulliam
United States
More flights between these airports :: More routes between these airports
Route: +EED V12 DRK FLG SHEFF
File this flight plan on PilotEdge
Remarks:
Altitude:
(Current/Filed)
17,000ft
Speed:
(Current/Filed)
270kts
Departed: 09-Jun-20 07:45 AM
Arrived: 09-Jun-20 08:32 AM
Distance/Time
Traveled:
0nm/0:47
Distance/Time
To Go:
Arrived

Flight Plot

Page will automatically refresh every two minutes.

Flight plan parsing failed; only flown route is shown


Map Options




Map Legend


Flown Route
Filed Route
Departure Airport
Arrival Airport
Navaid (VOR, NDB)
Fix

Horizontal Profiles

Position Reports

Time Latitude Longitude Heading Altitude Ground
Speed
09-Jun-20 06:25 35.158610 -114.556012 266 705ft 0kts
09-Jun-20 06:26 35.158610 -114.556012 266 705ft 0kts
09-Jun-20 06:27 35.158610 -114.556013 266 705ft 0kts
09-Jun-20 06:28 35.158610 -114.556013 266 705ft 0kts
09-Jun-20 06:29 35.158610 -114.556013 266 705ft 0kts
09-Jun-20 06:30 35.158610 -114.556013 266 705ft 0kts
09-Jun-20 06:31 35.158610 -114.556013 266 705ft 0kts
09-Jun-20 06:32 35.158610 -114.556013 266 705ft 0kts
09-Jun-20 06:33 35.158610 -114.556013 266 705ft 0kts
09-Jun-20 06:34 35.158610 -114.556013 266 705ft 0kts
09-Jun-20 06:35 35.158610 -114.556013 266 705ft 0kts
09-Jun-20 06:36 35.158610 -114.556013 266 705ft 0kts
09-Jun-20 06:37 35.158610 -114.556013 266 705ft 0kts
09-Jun-20 06:38 35.158610 -114.556013 266 705ft 0kts
09-Jun-20 06:39 35.158610 -114.556013 266 705ft 0kts
09-Jun-20 06:40 35.158610 -114.556013 266 705ft 0kts
09-Jun-20 06:41 35.158610 -114.556013 266 705ft 0kts
09-Jun-20 06:42 35.158610 -114.556013 266 705ft 0kts
09-Jun-20 06:43 35.158610 -114.556013 266 705ft 0kts
09-Jun-20 06:44 35.158610 -114.556013 266 705ft 0kts
09-Jun-20 06:45 35.158610 -114.556013 266 705ft 0kts
09-Jun-20 06:46 35.158610 -114.556013 266 705ft 0kts
09-Jun-20 06:47 35.158610 -114.556013 266 705ft 0kts
09-Jun-20 06:48 35.158610 -114.556013 266 705ft 0kts
09-Jun-20 06:49 35.158610 -114.556013 266 705ft 0kts
09-Jun-20 06:50 35.158610 -114.556013 266 705ft 0kts
09-Jun-20 06:51 35.158610 -114.556013 266 705ft 0kts
09-Jun-20 06:52 35.158610 -114.556013 266 705ft 0kts
09-Jun-20 06:53 35.158610 -114.556013 266 705ft 0kts
09-Jun-20 06:54 35.158610 -114.556013 266 705ft 0kts
09-Jun-20 06:55 35.158610 -114.556013 266 705ft 0kts
09-Jun-20 06:56 35.158610 -114.556013 266 705ft 0kts
09-Jun-20 06:57 35.158610 -114.556013 266 705ft 0kts
09-Jun-20 06:58 35.158610 -114.556013 266 705ft 0kts
09-Jun-20 06:59 35.158610 -114.556013 266 705ft 0kts
09-Jun-20 07:00 35.158610 -114.556013 266 705ft 0kts
09-Jun-20 07:01 35.158610 -114.556013 266 705ft 0kts
09-Jun-20 07:02 35.158610 -114.556013 266 705ft 0kts
09-Jun-20 07:03 35.158610 -114.556013 266 705ft 0kts
09-Jun-20 07:04 35.158610 -114.556013 266 705ft 0kts
09-Jun-20 07:05 35.158610 -114.556013 266 705ft 0kts
09-Jun-20 07:06 35.158610 -114.556013 266 705ft 0kts
09-Jun-20 07:07 35.158610 -114.556013 266 705ft 0kts
09-Jun-20 07:08 35.158610 -114.556013 266 705ft 0kts
09-Jun-20 07:09 35.158610 -114.556013 266 705ft 0kts
09-Jun-20 07:10 35.158610 -114.556013 266 705ft 0kts
09-Jun-20 07:11 35.158610 -114.556013 266 705ft 0kts
09-Jun-20 07:12 35.158610 -114.556013 266 705ft 0kts
09-Jun-20 07:13 35.158610 -114.556013 266 705ft 0kts
09-Jun-20 07:14 35.158610 -114.556013 266 705ft 0kts
09-Jun-20 07:15 35.158610 -114.556013 266 705ft 0kts
09-Jun-20 07:16 35.158610 -114.556013 266 705ft 0kts
09-Jun-20 07:17 35.158610 -114.556013 266 705ft 0kts
09-Jun-20 07:18 35.158610 -114.556013 266 705ft 0kts
09-Jun-20 07:19 35.158610 -114.556013 266 705ft 0kts
09-Jun-20 07:20 35.158610 -114.556013 266 705ft 0kts
09-Jun-20 07:21 35.158610 -114.556013 266 705ft 0kts
09-Jun-20 07:23 35.158610 -114.556013 266 705ft 0kts
09-Jun-20 07:24 35.158610 -114.556013 266 705ft 0kts
09-Jun-20 07:25 35.158610 -114.556013 266 705ft 0kts
09-Jun-20 07:26 35.158610 -114.556013 266 705ft 0kts
09-Jun-20 07:27 35.158610 -114.556013 266 705ft 0kts
09-Jun-20 07:28 35.158610 -114.556013 266 705ft 0kts
09-Jun-20 07:29 35.158610 -114.556013 266 705ft 0kts
09-Jun-20 07:30 35.158610 -114.556013 266 705ft 0kts
09-Jun-20 07:31 35.158610 -114.556013 266 705ft 0kts
09-Jun-20 07:32 35.158610 -114.556013 266 705ft 0kts
09-Jun-20 07:33 35.158610 -114.556013 266 705ft 0kts
09-Jun-20 07:34 35.158610 -114.556013 266 705ft 0kts
09-Jun-20 07:35 35.158610 -114.556013 266 705ft 0kts
09-Jun-20 07:36 35.158610 -114.556013 266 705ft 0kts
09-Jun-20 07:37 35.158608 -114.556026 257 705ft 1kts
09-Jun-20 07:38 35.156096 -114.556406 205 705ft 9kts
09-Jun-20 07:39 35.155900 -114.557722 245 705ft 6kts
09-Jun-20 07:39 35.152815 -114.557802 175 705ft 20kts
09-Jun-20 07:41 35.145153 -114.557294 177 705ft 23kts
09-Jun-20 07:42 35.143168 -114.557512 262 705ft 0kts
09-Jun-20 07:42 35.143168 -114.557512 262 705ft 0kts
09-Jun-20 07:44 35.143168 -114.557512 262 705ft 0kts
09-Jun-20 07:44 35.144586 -114.558606 356 705ft 49kts
09-Jun-20 07:45 35.187406 -114.561161 354 2055ft 204kts
09-Jun-20 07:46 35.239482 -114.578774 343 5235ft 185kts
09-Jun-20 07:47 35.293612 -114.579967 38 7976ft 204kts
09-Jun-20 07:48 35.268991 -114.539856 182 10605ft 218kts
09-Jun-20 07:49 35.211143 -114.553603 191 13749ft 220kts
09-Jun-20 07:50 35.150874 -114.564324 177 16827ft 222kts
09-Jun-20 07:51 35.079049 -114.554451 170 17128ft 282kts
09-Jun-20 07:52 34.999967 -114.540265 173 16975ft 286kts
09-Jun-20 07:53 34.923612 -114.517551 164 17051ft 285kts
09-Jun-20 07:54 34.845464 -114.496833 170 17041ft 286kts
09-Jun-20 07:55 34.768724 -114.473855 173 17078ft 279kts
09-Jun-20 07:56 34.730589 -114.414870 67 16960ft 270kts
09-Jun-20 07:57 34.766488 -114.336452 78 17033ft 268kts
09-Jun-20 07:58 34.761431 -114.245723 94 16995ft 267kts
09-Jun-20 07:59 34.762135 -114.155526 91 17075ft 268kts
09-Jun-20 08:00 34.760630 -114.064048 92 17002ft 270kts
09-Jun-20 08:01 34.759372 -113.972715 88 17007ft 269kts
09-Jun-20 08:02 34.759263 -113.881637 91 17081ft 269kts
09-Jun-20 08:03 34.757342 -113.790070 91 16997ft 271kts
09-Jun-20 08:04 34.753545 -113.699105 93 17132ft 266kts
09-Jun-20 08:05 34.752047 -113.607405 90 16967ft 272kts
09-Jun-20 08:06 34.751037 -113.515408 91 16946ft 270kts
09-Jun-20 08:07 34.749056 -113.424552 92 17075ft 267kts
09-Jun-20 08:08 34.742170 -113.333862 95 16923ft 275kts
09-Jun-20 08:09 34.735751 -113.237434 98 14255ft 287kts
09-Jun-20 08:10 34.730065 -113.143627 90 12830ft 272kts
09-Jun-20 08:11 34.729736 -113.055761 91 12982ft 259kts
09-Jun-20 08:12 34.725590 -112.969311 94 13031ft 257kts
09-Jun-20 08:13 34.723032 -112.882169 94 13007ft 255kts
09-Jun-20 08:14 34.717999 -112.795803 92 13018ft 255kts
09-Jun-20 08:15 34.715231 -112.710013 96 13097ft 254kts
09-Jun-20 08:16 34.709529 -112.623515 89 12978ft 258kts
09-Jun-20 08:17 34.706188 -112.536922 96 13066ft 254kts
09-Jun-20 08:18 34.714514 -112.453196 55 13058ft 248kts
09-Jun-20 08:19 34.746446 -112.376978 60 12569ft 268kts
09-Jun-20 08:20 34.776167 -112.292220 65 10869ft 263kts
09-Jun-20 08:21 34.805921 -112.217110 66 10956ft 244kts
09-Jun-20 08:22 34.835581 -112.142672 63 11007ft 248kts
09-Jun-20 08:23 34.865713 -112.066223 64 11021ft 253kts
09-Jun-20 08:24 34.905101 -111.993398 45 9777ft 275kts
09-Jun-20 08:25 34.965266 -111.944869 29 9092ft 244kts
09-Jun-20 08:26 35.008714 -111.882814 49 9184ft 240kts
09-Jun-20 08:27 35.054166 -111.822638 44 9386ft 246kts
09-Jun-20 08:28 35.097468 -111.760289 72 9176ft 225kts
09-Jun-20 08:29 35.109876 -111.705272 59 7867ft 130kts
09-Jun-20 08:30 35.133092 -111.676960 40 7022ft 95kts
09-Jun-20 08:31 35.139267 -111.671533 310 7015ft 0kts
09-Jun-20 08:32 35.139293 -111.671571 309 7015ft 2kts
09-Jun-20 08:33 35.137630 -111.674378 312 7015ft 9kts
09-Jun-20 08:34 35.137807 -111.674614 312 7015ft 0kts
09-Jun-20 08:35 35.137807 -111.674614 312 7015ft 0kts
09-Jun-20 08:36 35.137807 -111.674614 312 7015ft 0kts
09-Jun-20 08:37 35.158610 -114.556012 266 705ft 0kts
09-Jun-20 08:38 35.158610 -114.556012 266 705ft 0kts
09-Jun-20 08:39 35.158610 -114.556012 266 705ft 0kts
09-Jun-20 08:40 35.158610 -114.556012 266 705ft 0kts

Navigation Log

Ident Type
Flight plan parsing failed, navigation log unavailable